createdAt,value
2023-04-21T00:01:50.022Z,98004.09
2023-04-21T00:04:18.148Z,97997.06
2023-04-21T00:06:45.787Z,98000.41
2023-04-21T00:09:12.713Z,97993.38
2023-04-21T00:11:39.663Z,97989.75
2023-04-21T00:14:06.552Z,97989.06
2023-04-21T00:16:33.492Z,97988.84
2023-04-21T00:19:00.613Z,97990.53
2023-04-21T00:21:27.501Z,97982.44
2023-04-21T00:23:54.358Z,97991.34
2023-04-21T00:26:21.261Z,97981.44
2023-04-21T00:28:48.297Z,97987.28
2023-04-21T00:31:15.162Z,97989.41
2023-04-21T00:33:42.061Z,97987.22
2023-04-21T00:36:08.967Z,97987.50
2023-04-21T00:38:35.824Z,97980.81
2023-04-21T00:41:02.782Z,97974.25
2023-04-21T00:43:29.646Z,97972.72
2023-04-21T00:45:56.490Z,97976.97
2023-04-21T00:48:23.356Z,97973.66
2023-04-21T00:50:50.276Z,97980.66
2023-04-21T00:53:17.424Z,97979.88
2023-04-21T00:55:44.264Z,97980.53
2023-04-21T00:58:11.150Z,97978.00
2023-04-21T01:00:39.627Z,97978.19
2023-04-21T01:03:08.272Z,97984.84
2023-04-21T01:05:35.865Z,97982.53
2023-04-21T01:08:02.990Z,97977.03
2023-04-21T01:10:30.189Z,97978.75
2023-04-21T01:12:57.108Z,97974.06
2023-04-21T01:15:24.011Z,97972.06
2023-04-21T01:17:54.345Z,97972.72
2023-04-21T01:20:21.290Z,97966.56
2023-04-21T01:22:50.003Z,97966.44
2023-04-21T01:25:17.767Z,97964.28
2023-04-21T01:27:44.720Z,97963.03
2023-04-21T01:30:11.786Z,97965.09
2023-04-21T01:32:38.764Z,97971.56
2023-04-21T01:35:06.754Z,97975.22
2023-04-21T01:37:34.121Z,97970.94
2023-04-21T01:40:04.913Z,97983.41
2023-04-21T01:42:34.643Z,97974.16
2023-04-21T01:45:01.558Z,97980.41
2023-04-21T01:47:28.486Z,97978.63
2023-04-21T01:49:55.638Z,97972.81
2023-04-21T01:52:22.502Z,97973.47
2023-04-21T01:54:49.429Z,97971.13
2023-04-21T01:57:17.109Z,97967.72
2023-04-21T01:59:44.445Z,97968.53
2023-04-21T02:02:11.410Z,97980.22
2023-04-21T02:04:38.512Z,97972.84
2023-04-21T02:07:05.516Z,97979.88
2023-04-21T02:09:32.565Z,97978.56
2023-04-21T02:12:00.512Z,97975.41
2023-04-21T02:14:27.817Z,97977.38
2023-04-21T02:16:56.391Z,97972.28
2023-04-21T02:19:23.687Z,97979.59
2023-04-21T02:21:50.642Z,97965.81
2023-04-21T02:24:17.815Z,97969.28
2023-04-21T02:26:44.669Z,97967.31
2023-04-21T02:29:11.526Z,97970.03
2023-04-21T02:31:53.772Z,97966.97
2023-04-21T02:34:25.344Z,97971.31
2023-04-21T02:36:52.299Z,97969.09
2023-04-21T02:39:19.466Z,97967.72
2023-04-21T02:41:46.489Z,97966.50
2023-04-21T02:44:13.338Z,97967.31
2023-04-21T02:46:41.894Z,97968.34
2023-04-21T02:49:09.620Z,97961.47
2023-04-21T02:51:36.680Z,97974.91
2023-04-21T02:54:03.724Z,97977.22
2023-04-21T02:56:31.869Z,97970.12
2023-04-21T02:58:58.807Z,97970.53
2023-04-21T03:01:25.910Z,97975.56
2023-04-21T03:03:52.865Z,97962.50
2023-04-21T03:06:19.740Z,97975.03
2023-04-21T03:08:46.701Z,97963.34
2023-04-21T03:11:13.620Z,97968.34
2023-04-21T03:13:40.715Z,97959.34
2023-04-21T03:16:07.753Z,97965.13
2023-04-21T03:18:37.444Z,97967.66
2023-04-21T03:21:04.330Z,97964.72
2023-04-21T03:23:31.208Z,97977.09
2023-04-21T03:25:58.065Z,97967.19
2023-04-21T03:28:24.946Z,97971.66
2023-04-21T03:30:51.959Z,97975.44
2023-04-21T03:33:18.898Z,97965.84
2023-04-21T03:35:45.741Z,97969.81
2023-04-21T03:38:12.626Z,97968.69
2023-04-21T03:40:39.433Z,97972.59
2023-04-21T03:43:06.309Z,97969.28
2023-04-21T03:45:35.718Z,97968.44
2023-04-21T03:48:02.754Z,97968.91
2023-04-21T03:50:29.883Z,97976.56
2023-04-21T03:52:57.373Z,97975.88
2023-04-21T03:55:24.279Z,97971.69
2023-04-21T03:57:51.142Z,97971.91
2023-04-21T04:00:18.150Z,97985.31
2023-04-21T04:02:45.138Z,97979.81
2023-04-21T04:05:12.134Z,97984.28
2023-04-21T04:07:40.047Z,97986.34
2023-04-21T04:10:07.007Z,97980.44
2023-04-21T04:12:33.922Z,97985.97
2023-04-21T04:15:01.419Z,97977.00
2023-04-21T04:17:28.353Z,97975.66
2023-04-21T04:19:55.231Z,97988.56
2023-04-21T04:22:22.065Z,97983.63
2023-04-21T04:24:48.924Z,97983.38
2023-04-21T04:27:15.797Z,97985.72
2023-04-21T04:29:44.143Z,97993.72
2023-04-21T04:32:11.557Z,97986.63
2023-04-21T04:34:38.601Z,97996.53
2023-04-21T04:37:06.904Z,97996.25
2023-04-21T04:39:33.929Z,98004.16
2023-04-21T04:42:01.584Z,98004.91
2023-04-21T04:44:28.560Z,97999.22
2023-04-21T04:46:55.975Z,97998.63
2023-04-21T04:49:24.194Z,98010.25
2023-04-21T04:51:51.270Z,97998.84
2023-04-21T04:54:18.376Z,98008.91
2023-04-21T04:56:45.564Z,98014.31
2023-04-21T04:59:12.583Z,98011.00
2023-04-21T05:01:40.846Z,98017.16
2023-04-21T05:04:08.067Z,98025.09
2023-04-21T05:06:35.195Z,98020.75
2023-04-21T05:09:02.152Z,98020.56
2023-04-21T05:11:29.053Z,98024.69
2023-04-21T05:13:55.925Z,98019.22
2023-04-21T05:16:22.905Z,98027.22
2023-04-21T05:18:54.274Z,98032.16
2023-04-21T05:21:27.828Z,98029.81
2023-04-21T05:23:56.533Z,98032.34
2023-04-21T05:26:24.507Z,98029.84
2023-04-21T05:28:51.414Z,98034.19
2023-04-21T05:31:18.270Z,98035.44
2023-04-21T05:33:45.216Z,98033.28
2023-04-21T05:36:12.408Z,98036.06
2023-04-21T05:38:39.737Z,98039.72
2023-04-21T05:41:06.797Z,98030.59
2023-04-21T05:43:33.685Z,98036.38
2023-04-21T05:46:07.717Z,98048.00
2023-04-21T05:48:35.178Z,98039.22
2023-04-21T05:51:12.033Z,98043.47
2023-04-21T05:53:40.773Z,98038.16
2023-04-21T05:56:09.437Z,98039.97
2023-04-21T05:58:36.903Z,98034.47
2023-04-21T06:01:03.912Z,98041.69
2023-04-21T06:03:32.081Z,98043.47
2023-04-21T06:06:00.921Z,98040.91
2023-04-21T06:08:27.908Z,98039.75
2023-04-21T06:10:55.008Z,98046.25
2023-04-21T06:13:21.878Z,98041.41
2023-04-21T06:15:48.800Z,98033.66
2023-04-21T06:18:16.398Z,98045.66
2023-04-21T06:20:43.254Z,98041.09
2023-04-21T06:23:10.137Z,98038.41
2023-04-21T06:25:37.027Z,98041.75
2023-04-21T06:28:03.990Z,98035.25
2023-04-21T06:30:30.843Z,98042.72
2023-04-21T06:32:57.812Z,98043.16
2023-04-21T06:35:24.681Z,98047.75
2023-04-21T06:37:51.724Z,98049.63
2023-04-21T06:40:18.705Z,98044.22
2023-04-21T06:42:45.606Z,98044.16
2023-04-21T06:45:12.495Z,98046.44
2023-04-21T06:47:39.463Z,98048.28
2023-04-21T06:50:07.625Z,98042.69
2023-04-21T06:52:34.524Z,98049.03
2023-04-21T06:55:01.429Z,98044.34
2023-04-21T06:57:28.371Z,98046.78
2023-04-21T06:59:55.291Z,98046.03
2023-04-21T07:02:22.250Z,98050.37
2023-04-21T07:04:49.372Z,98041.66
2023-04-21T07:07:16.431Z,98045.91
2023-04-21T07:09:43.379Z,98053.56
2023-04-21T07:12:10.271Z,98036.63
2023-04-21T07:14:37.162Z,98044.94
2023-04-21T07:17:04.054Z,98042.84
2023-04-21T07:19:31.038Z,98041.53
2023-04-21T07:21:58.565Z,98043.84
2023-04-21T07:24:25.431Z,98045.31
2023-04-21T07:26:52.281Z,98045.62
2023-04-21T07:29:19.608Z,98043.22
2023-04-21T07:31:48.401Z,98045.75
2023-04-21T07:34:15.569Z,98037.22
2023-04-21T07:36:42.477Z,98043.13
2023-04-21T07:39:09.395Z,98042.06
2023-04-21T07:41:36.272Z,98040.56
2023-04-21T07:44:03.191Z,98042.72
2023-04-21T07:46:33.097Z,98035.44
2023-04-21T07:49:02.805Z,98042.09
2023-04-21T07:51:31.887Z,98046.34
2023-04-21T07:53:58.981Z,98051.44
2023-04-21T07:56:25.916Z,98039.75
2023-04-21T07:58:52.740Z,98044.00
2023-04-21T08:01:20.717Z,98046.09
2023-04-21T08:03:47.708Z,98040.59
2023-04-21T08:06:15.060Z,98042.34
2023-04-21T08:08:42.120Z,98041.59
2023-04-21T08:11:10.814Z,98042.78
2023-04-21T08:13:38.085Z,98040.81
2023-04-21T08:16:05.457Z,98041.50
2023-04-21T08:18:32.465Z,98043.88
2023-04-21T08:20:59.378Z,98049.91
2023-04-21T08:23:26.435Z,98046.00
2023-04-21T08:25:53.363Z,98053.06
2023-04-21T08:28:20.315Z,98037.25
2023-04-21T08:30:47.237Z,98040.97
2023-04-21T08:33:14.259Z,98039.12
2023-04-21T08:35:54.977Z,98026.69
2023-04-21T08:38:28.713Z,98039.81
2023-04-21T08:40:56.425Z,98040.28
2023-04-21T08:43:23.373Z,98033.50
2023-04-21T08:45:51.480Z,98027.56
2023-04-21T08:48:21.781Z,98036.34
2023-04-21T08:50:52.450Z,98023.88
2023-04-21T08:53:19.398Z,98028.50
2023-04-21T08:55:53.705Z,98031.22
2023-04-21T08:58:26.741Z,98032.97
2023-04-21T09:00:53.661Z,98034.72
2023-04-21T09:03:26.469Z,98029.28
2023-04-21T09:06:08.749Z,98029.44
2023-04-21T09:08:42.977Z,98029.81
2023-04-21T09:11:14.273Z,98024.47
2023-04-21T09:13:43.379Z,98023.28
2023-04-21T09:16:21.769Z,98024.97
2023-04-21T09:18:51.728Z,98012.66
2023-04-21T09:21:19.968Z,98012.25
2023-04-21T09:23:47.869Z,98011.28
2023-04-21T09:26:16.288Z,98010.72
2023-04-21T09:28:44.181Z,98017.44
2023-04-21T09:31:21.656Z,98010.44
2023-04-21T09:36:21.626Z,98014.81
2023-04-21T09:39:17.388Z,98008.97
2023-04-21T09:41:44.413Z,98006.03
2023-04-21T09:44:11.312Z,98002.44
2023-04-21T09:46:39.623Z,97998.94
2023-04-21T09:49:07.120Z,97998.25
2023-04-21T09:56:50.090Z,98000.38
2023-04-21T09:59:27.808Z,98008.38
2023-04-21T10:01:56.692Z,98003.37
2023-04-21T10:04:26.047Z,97999.28
2023-04-21T10:06:53.583Z,97995.69
2023-04-21T10:09:23.307Z,98003.19
2023-04-21T10:11:50.278Z,97995.78
2023-04-21T10:14:17.436Z,97996.78
2023-04-21T10:16:44.515Z,97999.09
2023-04-21T10:19:28.270Z,97997.28
2023-04-21T10:21:58.062Z,97994.94
2023-04-21T10:24:30.020Z,97997.28
2023-04-21T10:27:00.059Z,97996.66
2023-04-21T10:29:43.749Z,97980.78
2023-04-21T10:32:32.255Z,97994.78
2023-04-21T10:34:59.176Z,97989.28
2023-04-21T10:37:26.023Z,97986.34
2023-04-21T10:39:54.992Z,97983.06
2023-04-21T10:42:29.938Z,97978.63
2023-04-21T10:44:56.813Z,97979.59
2023-04-21T10:47:52.131Z,97973.87
2023-04-21T10:50:32.336Z,97982.06
2023-04-21T10:53:12.611Z,97975.50
2023-04-21T10:55:39.921Z,97984.44
2023-04-21T10:58:11.774Z,97970.34
2023-04-21T11:00:39.517Z,97972.97
2023-04-21T11:03:07.986Z,97969.38
2023-04-21T11:05:40.628Z,97974.47
2023-04-21T11:08:15.001Z,97971.13
2023-04-21T11:10:57.105Z,97964.84
2023-04-21T11:13:26.716Z,97971.41
2023-04-21T11:16:01.455Z,97971.16
2023-04-21T11:18:34.295Z,97968.94
2023-04-21T11:21:18.631Z,97968.81
2023-04-21T11:23:50.738Z,97962.44
2023-04-21T11:26:18.128Z,97965.78
2023-04-21T11:28:49.685Z,97964.25
2023-04-21T11:31:16.628Z,97964.28
2023-04-21T11:33:43.661Z,97963.72
2023-04-21T11:36:10.536Z,97963.56
2023-04-21T11:38:40.898Z,97954.06
2023-04-21T11:41:10.184Z,97960.66
2023-04-21T11:43:38.116Z,97953.63
2023-04-21T11:46:19.068Z,97959.56
2023-04-21T11:48:46.772Z,97958.87
2023-04-21T11:51:22.240Z,97949.25
2023-04-21T11:53:49.444Z,97961.34
2023-04-21T11:56:24.508Z,97955.72
2023-04-21T11:58:53.003Z,97948.16
2023-04-21T12:01:21.297Z,97950.25
2023-04-21T12:03:57.085Z,97948.22
2023-04-21T12:06:27.248Z,97949.59
2023-04-21T12:09:01.928Z,97950.03
2023-04-21T12:11:30.211Z,97939.94
2023-04-21T12:14:00.506Z,97946.28
2023-04-21T12:16:28.911Z,97944.25
2023-04-21T12:18:56.608Z,97940.53
2023-04-21T12:21:28.121Z,97943.63
2023-04-21T12:23:55.219Z,97936.16
2023-04-21T12:26:23.938Z,97939.47
2023-04-21T12:28:51.962Z,97927.81
2023-04-21T12:31:19.341Z,97929.50
2023-04-21T12:33:48.715Z,97935.72
2023-04-21T12:36:16.386Z,97920.94
2023-04-21T12:38:44.708Z,97922.22
2023-04-21T12:41:11.633Z,97922.78
2023-04-21T12:43:38.489Z,97928.44
2023-04-21T12:46:05.490Z,97930.16
2023-04-21T12:48:32.476Z,97929.41
2023-04-21T12:50:59.323Z,97920.69
2023-04-21T12:53:26.175Z,97918.91
2023-04-21T12:56:03.450Z,97919.63
2023-04-21T12:58:31.851Z,97911.88
2023-04-21T13:00:58.775Z,97913.50
2023-04-21T13:03:25.806Z,97911.16
2023-04-21T13:05:52.813Z,97907.59
2023-04-21T13:08:19.689Z,97908.50
2023-04-21T13:10:46.599Z,97901.78
2023-04-21T13:13:13.563Z,97902.84
2023-04-21T13:15:40.381Z,97899.06
2023-04-21T13:18:07.336Z,97899.34
2023-04-21T13:20:34.234Z,97895.56
2023-04-21T13:23:01.121Z,97894.88
2023-04-21T13:25:28.005Z,97901.06
2023-04-21T13:27:54.906Z,97892.50
2023-04-21T13:30:21.768Z,97891.06
2023-04-21T13:32:49.668Z,97883.22
2023-04-21T13:35:16.704Z,97880.69
2023-04-21T13:37:43.578Z,97886.12
2023-04-21T13:40:11.059Z,97895.63
2023-04-21T13:42:38.710Z,97882.97
2023-04-21T13:45:06.742Z,97884.38
2023-04-21T13:47:34.537Z,97881.69
2023-04-21T13:50:01.881Z,97875.25
2023-04-21T13:52:28.723Z,97882.19
2023-04-21T13:54:55.585Z,97882.97
2023-04-21T13:57:22.632Z,97869.59
2023-04-21T13:59:50.394Z,97867.81
2023-04-21T14:02:18.225Z,97871.94
2023-04-21T14:04:45.577Z,97868.50
2023-04-21T14:07:14.934Z,97873.28
2023-04-21T14:09:41.827Z,97862.75
2023-04-21T14:12:08.773Z,97860.44
2023-04-21T14:14:38.682Z,97865.34
2023-04-21T14:17:06.129Z,97859.25
2023-04-21T14:19:33.240Z,97854.06
2023-04-21T14:22:00.306Z,97858.41
2023-04-21T14:24:29.337Z,97846.56
2023-04-21T14:26:56.561Z,97837.97
2023-04-21T14:29:23.625Z,97841.19
2023-04-21T14:31:51.312Z,97839.44
2023-04-21T14:34:18.266Z,97839.25
2023-04-21T14:36:47.631Z,97832.53
2023-04-21T14:39:14.505Z,97823.78
2023-04-21T14:41:41.412Z,97823.72
2023-04-21T14:44:08.548Z,97825.44
2023-04-21T14:46:35.954Z,97829.06
2023-04-21T14:49:03.398Z,97826.16
2023-04-21T14:51:31.931Z,97825.56
2023-04-21T14:53:58.834Z,97826.53
2023-04-21T14:56:25.953Z,97825.16
2023-04-21T14:58:53.052Z,97820.53
2023-04-21T15:01:20.038Z,97821.22
2023-04-21T15:03:47.139Z,97816.59
2023-04-21T15:06:14.297Z,97820.50
2023-04-21T15:08:41.268Z,97814.81
2023-04-21T15:11:08.262Z,97816.97
2023-04-21T15:13:35.218Z,97822.03
2023-04-21T15:16:02.106Z,97815.66
2023-04-21T15:18:29.003Z,97816.69
2023-04-21T15:20:55.886Z,97819.00
2023-04-21T15:23:22.763Z,97811.94
2023-04-21T15:25:49.650Z,97814.69
2023-04-21T15:28:16.532Z,97810.28
2023-04-21T15:30:43.972Z,97811.19
2023-04-21T15:33:11.847Z,97814.34
2023-04-21T15:35:38.854Z,97809.91
2023-04-21T15:38:06.592Z,97807.56
2023-04-21T15:40:33.537Z,97805.94
2023-04-21T15:43:00.404Z,97804.94
2023-04-21T15:45:27.286Z,97808.34
2023-04-21T15:47:54.200Z,97801.59
2023-04-21T15:50:21.219Z,97799.94
2023-04-21T15:52:48.125Z,97796.56
2023-04-21T15:55:15.434Z,97797.59
2023-04-21T15:57:42.294Z,97793.66
2023-04-21T16:00:12.946Z,97793.22
2023-04-21T16:02:40.040Z,97796.28
2023-04-21T16:05:07.393Z,97796.84
2023-04-21T16:07:34.715Z,97797.53
2023-04-21T16:10:01.605Z,97798.87
2023-04-21T16:12:28.576Z,97801.91
2023-04-21T16:15:01.598Z,97796.81
2023-04-21T16:17:34.347Z,97796.25
2023-04-21T16:20:01.221Z,97796.84
2023-04-21T16:22:28.280Z,97784.59
2023-04-21T16:24:55.261Z,97786.75
2023-04-21T16:27:22.253Z,97787.44
2023-04-21T16:29:50.461Z,97791.84
2023-04-21T16:32:17.441Z,97784.09
2023-04-21T16:34:44.398Z,97784.72
2023-04-21T16:37:11.389Z,97778.19
2023-04-21T16:39:38.497Z,97788.72
2023-04-21T16:42:05.476Z,97779.25
2023-04-21T16:44:32.400Z,97784.41
2023-04-21T16:46:59.376Z,97782.47
2023-04-21T16:49:26.323Z,97780.94
2023-04-21T16:51:53.155Z,97782.03
2023-04-21T16:54:20.039Z,97782.91
2023-04-21T16:56:46.961Z,97790.47
2023-04-21T16:59:14.209Z,97785.09
2023-04-21T17:01:41.292Z,97789.16
2023-04-21T17:04:08.359Z,97785.25
2023-04-21T17:06:35.464Z,97778.31
2023-04-21T17:09:02.347Z,97792.78
2023-04-21T17:11:30.127Z,97790.19
2023-04-21T17:13:56.978Z,97794.94
2023-04-21T17:16:23.935Z,97795.78
2023-04-21T17:18:50.960Z,97791.75
2023-04-21T17:21:17.795Z,97791.88
2023-04-21T17:23:44.690Z,97792.28
2023-04-21T17:26:13.126Z,97789.03
2023-04-21T17:28:40.379Z,97798.47
2023-04-21T17:31:14.549Z,97794.53
2023-04-21T17:33:43.571Z,97785.56
2023-04-21T17:36:10.566Z,97791.28
2023-04-21T17:38:37.691Z,97792.84
2023-04-21T17:41:06.938Z,97798.25
2023-04-21T17:43:33.901Z,97796.59
2023-04-21T17:46:00.861Z,97798.56
2023-04-21T17:48:27.796Z,97793.66
2023-04-21T17:50:54.652Z,97793.47
2023-04-21T17:53:21.523Z,97798.63
2023-04-21T17:55:48.355Z,97801.41
2023-04-21T17:58:15.254Z,97795.50
2023-04-21T18:00:42.146Z,97803.03
2023-04-21T18:03:09.138Z,97802.12
2023-04-21T18:05:36.389Z,97799.28
2023-04-21T18:08:03.290Z,97802.06
2023-04-21T18:10:30.239Z,97803.59
2023-04-21T18:12:57.620Z,97812.03
2023-04-21T18:15:24.710Z,97814.72
2023-04-21T18:17:53.355Z,97814.09
2023-04-21T18:20:20.472Z,97816.97
2023-04-21T18:22:47.611Z,97823.47
2023-04-21T18:25:14.883Z,97816.25
2023-04-21T18:27:41.970Z,97818.72
2023-04-21T18:30:09.862Z,97829.03
2023-04-21T18:32:37.203Z,97832.25
2023-04-21T18:35:05.884Z,97829.44
2023-04-21T18:37:34.933Z,97825.44
2023-04-21T18:40:01.841Z,97824.28
2023-04-21T18:42:28.760Z,97833.50
2023-04-21T18:44:57.735Z,97835.63
2023-04-21T18:47:25.134Z,97832.03
2023-04-21T18:49:54.365Z,97829.66
2023-04-21T18:52:21.256Z,97834.22
2023-04-21T18:54:48.099Z,97829.41
2023-04-21T18:57:14.961Z,97832.91
2023-04-21T18:59:41.798Z,97830.63
2023-04-21T19:02:13.207Z,97833.12
2023-04-21T19:04:40.585Z,97839.50
2023-04-21T19:07:10.154Z,97839.22
2023-04-21T19:09:37.774Z,97841.63
2023-04-21T19:12:05.022Z,97842.31
2023-04-21T19:14:42.399Z,97837.28
2023-04-21T19:17:13.437Z,97839.13
2023-04-21T19:19:40.693Z,97838.03
2023-04-21T19:22:07.680Z,97842.66
2023-04-21T19:24:34.663Z,97840.31
2023-04-21T19:27:06.278Z,97840.81
2023-04-21T19:29:33.320Z,97850.03
2023-04-21T19:32:00.316Z,97843.22
2023-04-21T19:34:27.254Z,97845.13
2023-04-21T19:36:54.276Z,97844.31
2023-04-21T19:39:21.210Z,97842.63
2023-04-21T19:41:48.084Z,97840.38
2023-04-21T19:44:14.950Z,97836.34
2023-04-21T19:46:43.257Z,97841.09
2023-04-21T19:49:13.177Z,97844.06
2023-04-21T19:51:41.393Z,97841.91
2023-04-21T19:54:12.025Z,97836.28
2023-04-21T19:56:40.034Z,97836.22
2023-04-21T19:59:07.104Z,97838.97
2023-04-21T20:01:34.809Z,97831.91
2023-04-21T20:04:02.395Z,97834.31
2023-04-21T20:06:29.440Z,97833.47
2023-04-21T20:08:56.532Z,97834.56
2023-04-21T20:11:23.496Z,97826.47
2023-04-21T20:13:50.673Z,97825.19
2023-04-21T20:16:18.376Z,97828.84
2023-04-21T20:18:45.261Z,97829.09
2023-04-21T20:21:12.634Z,97828.84
2023-04-21T20:23:39.465Z,97829.69
2023-04-21T20:26:06.359Z,97834.97
2023-04-21T20:28:33.366Z,97833.59
2023-04-21T20:31:00.338Z,97829.69
2023-04-21T20:33:28.250Z,97833.34
2023-04-21T20:35:55.588Z,97836.47
2023-04-21T20:38:24.132Z,97839.44
2023-04-21T20:40:52.501Z,97846.28
2023-04-21T20:43:19.564Z,97838.88
2023-04-21T20:45:47.545Z,97845.63
2023-04-21T20:48:14.462Z,97846.91
2023-04-21T20:50:43.332Z,97856.00
2023-04-21T20:53:11.638Z,97853.34
2023-04-21T20:55:38.778Z,97846.66
2023-04-21T20:58:06.157Z,97849.53
2023-04-21T21:00:34.754Z,97849.63
2023-04-21T21:03:02.369Z,97845.59
2023-04-21T21:05:30.505Z,97851.41
2023-04-21T21:07:57.495Z,97851.06
2023-04-21T21:10:24.396Z,97853.44
2023-04-21T21:12:51.311Z,97855.72
2023-04-21T21:15:18.209Z,97855.09
2023-04-21T21:17:45.168Z,97845.72
2023-04-21T21:20:12.152Z,97847.84
2023-04-21T21:22:39.043Z,97853.56
2023-04-21T21:25:06.254Z,97855.06
2023-04-21T21:27:33.144Z,97854.19
2023-04-21T21:30:00.014Z,97858.63
2023-04-21T21:32:26.882Z,97853.06
2023-04-21T21:34:53.797Z,97856.75
2023-04-21T21:37:21.375Z,97862.38
2023-04-21T21:39:48.417Z,97859.28
2023-04-21T21:42:15.493Z,97869.06
2023-04-21T21:44:42.440Z,97867.69
2023-04-21T21:47:09.400Z,97860.44
2023-04-21T21:49:38.514Z,97864.91
2023-04-21T21:52:06.090Z,97868.53
2023-04-21T21:54:32.955Z,97868.88
2023-04-21T21:56:59.840Z,97867.56
2023-04-21T21:59:26.760Z,97872.16
2023-04-21T22:01:53.867Z,97871.69
2023-04-21T22:04:21.060Z,97875.75
2023-04-21T22:06:48.415Z,97870.28
2023-04-21T22:09:15.550Z,97876.09
2023-04-21T22:11:42.501Z,97873.75
2023-04-21T22:14:21.692Z,97871.97
2023-04-21T22:16:50.763Z,97873.50
2023-04-21T22:19:20.429Z,97870.31
2023-04-21T22:21:47.436Z,97875.16
2023-04-21T22:24:14.334Z,97875.88
2023-04-21T22:26:41.237Z,97869.47
2023-04-21T22:29:08.102Z,97878.03
2023-04-21T22:31:35.130Z,97876.81
2023-04-21T22:34:02.090Z,97871.97
2023-04-21T22:36:28.940Z,97872.63
2023-04-21T22:38:55.793Z,97877.62
2023-04-21T22:41:22.662Z,97870.12
2023-04-21T22:43:49.543Z,97875.56
2023-04-21T22:46:16.471Z,97876.53
2023-04-21T22:48:46.753Z,97872.66
2023-04-21T22:51:20.985Z,97870.50
2023-04-21T22:53:47.890Z,97875.59
2023-04-21T22:56:14.810Z,97869.25
2023-04-21T22:58:41.849Z,97876.13
2023-04-21T23:01:08.960Z,97871.06
2023-04-21T23:03:36.060Z,97879.31
2023-04-21T23:06:03.083Z,97876.75
2023-04-21T23:08:29.919Z,97875.97
2023-04-21T23:10:57.278Z,97875.37
2023-04-21T23:13:24.137Z,97886.09
2023-04-21T23:15:51.037Z,97872.25
2023-04-21T23:18:17.929Z,97871.91
2023-04-21T23:20:44.878Z,97878.75
2023-04-21T23:23:11.891Z,97879.06
2023-04-21T23:25:38.772Z,97881.25
2023-04-21T23:28:05.770Z,97870.28
2023-04-21T23:30:32.692Z,97873.22
2023-04-21T23:32:59.669Z,97874.41
2023-04-21T23:35:26.946Z,97868.97
2023-04-21T23:37:53.805Z,97864.47
2023-04-21T23:40:20.953Z,97866.37
2023-04-21T23:42:48.278Z,97869.03
2023-04-21T23:45:15.501Z,97861.66
2023-04-21T23:47:42.365Z,97865.34
2023-04-21T23:50:09.754Z,97858.03
2023-04-21T23:52:36.626Z,97860.94
2023-04-21T23:55:03.723Z,97861.19
2023-04-21T23:57:30.564Z,97858.03
2023-04-21T23:59:57.466Z,97858.06
